Time;durP1;ratioP1;P1;durP2;ratioP2;P2;SDS_P1;SDS_P2;PMS_P1;PMS_P2;Temp;Humidity;BMP_temperature;BMP_pressure;BME280_temperature;BME280_humidity;BME280_pressure;Samples;Min_cycle;Max_cycle;Signal;HPM_P1;HPM_P2
2021/08/11 00:02:04;;;;;;;;;;;;;;;25.69;57.30;101016.59;4956363;28;1415;-68
2021/08/11 00:04:32;;;;;;;;;;;;;;;25.66;56.41;101018.66;4953714;28;1262;-68
2021/08/11 00:06:58;;;;;;;;;;;;;;;25.68;55.81;101003.41;4953356;29;1218;-68
2021/08/11 00:09:25;;;;;;;;;;;;;;;25.61;55.62;101002.19;4953173;29;1972;-67
2021/08/11 00:11:51;;;;;;;;;;;;;;;25.65;55.37;101003.66;4935624;29;1183;-67
2021/08/11 00:14:18;;;;;;;;;;;;;;;25.63;55.53;101014.44;4967893;28;1613;-68
2021/08/11 00:16:45;;;;;;;;;;;;;;;25.64;55.28;101001.94;4952281;28;1226;-68
2021/08/11 00:19:12;;;;;;;;;;;;;;;25.71;55.08;101008.47;4964433;28;1087;-68
2021/08/11 00:21:38;;;;;;;;;;;;;;;25.73;54.65;101019.88;4972322;28;1291;-67
2021/08/11 00:24:05;;;;;;;;;;;;;;;25.65;54.90;101014.31;4962792;28;1078;-68
2021/08/11 00:26:32;;;;;;;;;;;;;;;25.69;54.83;101010.41;4952642;28;1240;-67
2021/08/11 00:28:58;;;;;;;;;;;;;;;25.66;54.74;101008.84;4952788;28;1907;-67
2021/08/11 00:31:25;;;;;;;;;;;;;;;25.60;54.84;101024.50;4952578;29;1159;-67
2021/08/11 00:33:52;;;;;;;;;;;;;;;25.62;55.00;101014.56;4952644;29;1138;-69
2021/08/11 00:36:18;;;;;;;;;;;;;;;25.68;54.78;101014.06;4952443;28;1234;-68
2021/08/11 00:38:45;;;;;;;;;;;;;;;25.60;55.23;101011.16;4954858;28;1050;-67
2021/08/11 00:41:12;;;;;;;;;;;;;;;25.58;55.25;101002.44;4971509;28;1324;-66
2021/08/11 00:43:38;;;;;;;;;;;;;;;25.62;54.98;101011.91;4954154;28;1363;-67
2021/08/11 00:46:07;;;;;;;;;;;;;;;25.54;55.45;101016.03;4971603;28;1309;-68
2021/08/11 00:48:34;;;;;;;;;;;;;;;25.46;55.65;101023.78;4971542;28;1887;-67
2021/08/11 00:51:00;;;;;;;;;;;;;;;25.53;55.45;101014.31;4971583;28;1233;-67
2021/08/11 00:53:27;;;;;;;;;;;;;;;25.58;54.83;100999.78;4971659;28;1049;-68
2021/08/11 00:55:55;;;;;;;;;;;;;;;25.58;55.25;100997.09;4971369;28;1308;-67
2021/08/11 00:58:22;;;;;;;;;;;;;;;25.56;55.08;101001.72;4971369;28;1557;-67
2021/08/11 01:00:50;;;;;;;;;;;;;;;25.51;55.21;100981.59;4953642;28;1434;-67
2021/08/11 01:03:19;;;;;;;;;;;;;;;25.57;55.28;100987.41;4954370;28;1113;-68
2021/08/11 01:05:46;;;;;;;;;;;;;;;25.62;55.03;100994.06;4953988;28;1344;-68
2021/08/11 01:08:13;;;;;;;;;;;;;;;25.51;55.54;101008.28;4970723;28;1957;-68
2021/08/11 01:10:40;;;;;;;;;;;;;;;25.56;55.34;101015.06;4952479;28;1560;-67
2021/08/11 01:13:07;;;;;;;;;;;;;;;25.63;54.84;100994.91;4951336;28;1393;-67
2021/08/11 01:15:34;;;;;;;;;;;;;;;25.64;54.04;100994.78;4951428;29;1317;-68
2021/08/11 01:18:01;;;;;;;;;;;;;;;25.54;53.74;100988.50;4951789;28;1082;-68
2021/08/11 01:20:28;;;;;;;;;;;;;;;25.53;52.84;100986.84;4951622;29;1341;-68
2021/08/11 01:22:59;;;;;;;;;;;;;;;25.53;52.89;100984.97;4951834;29;732;-68
2021/08/11 01:25:34;;;;;;;;;;;;;;;25.57;53.39;100990.06;4952149;29;1277;-68
2021/08/11 01:28:07;;;;;;;;;;;;;;;25.54;53.53;100975.16;4951754;29;942;-67
2021/08/11 01:30:38;;;;;;;;;;;;;;;25.58;53.37;100970.44;4934121;29;1967;-68
2021/08/11 01:33:14;;;;;;;;;;;;;;;25.52;52.61;100964.63;4951735;29;965;-69
2021/08/11 01:35:44;;;;;;;;;;;;;;;25.56;51.81;100964.38;4951447;29;1316;-69
2021/08/11 01:38:13;;;;;;;;;;;;;;;25.54;51.47;100957.34;4951868;29;1096;-69
2021/08/11 01:40:47;;;;;;;;;;;;;;;25.61;50.76;100968.38;4951864;29;1333;-70
2021/08/11 01:43:14;;;;;;;;;;;;;;;25.58;50.45;100970.44;4951362;29;1137;-69
2021/08/11 01:45:42;;;;;;;;;;;;;;;25.59;50.09;100946.31;4951363;29;1182;-67
2021/08/11 01:48:16;;;;;;;;;;;;;;;25.61;49.41;100965.69;4951316;29;1066;-68
2021/08/11 01:50:48;;;;;;;;;;;;;;;25.48;49.82;100976.53;4933631;29;1898;-68
2021/08/11 01:53:19;;;;;;;;;;;;;;;25.48;49.95;100971.19;4951468;29;999;-68
2021/08/11 01:55:50;;;;;;;;;;;;;;;25.49;49.23;100978.22;4951285;28;1230;-69
2021/08/11 01:58:20;;;;;;;;;;;;;;;25.47;49.37;100992.63;4950985;28;1033;-68
2021/08/11 02:00:47;;;;;;;;;;;;;;;25.54;49.57;100986.69;4950896;29;1339;-68
2021/08/11 02:03:17;;;;;;;;;;;;;;;25.60;49.04;100979.16;4933692;29;1567;-68
2021/08/11 02:05:44;;;;;;;;;;;;;;;25.53;49.08;100979.66;4950866;29;1248;-68
2021/08/11 02:08:13;;;;;;;;;;;;;;;25.50;48.74;100976.41;4950871;28;1102;-67
2021/08/11 02:10:42;;;;;;;;;;;;;;;25.48;49.23;100973.84;4950972;29;1918;-68
2021/08/11 02:13:09;;;;;;;;;;;;;;;25.48;49.27;100976.53;4950654;29;1623;-67
2021/08/11 02:15:38;;;;;;;;;;;;;;;25.57;48.78;100974.06;4950566;29;1381;-69
2021/08/11 02:18:05;;;;;;;;;;;;;;;25.53;48.76;100968.97;4950028;29;1077;-68
2021/08/11 02:20:32;;;;;;;;;;;;;;;25.51;48.60;100965.59;4950051;28;1232;-68
2021/08/11 02:22:59;;;;;;;;;;;;;;;25.41;48.46;100953.13;4950753;29;784;-67
2021/08/11 02:25:25;;;;;;;;;;;;;;;25.43;48.56;100962.69;4950441;28;1343;-67
2021/08/11 02:28:03;;;;;;;;;;;;;;;25.44;48.76;100961.69;4950349;28;770;-68
2021/08/11 02:30:35;;;;;;;;;;;;;;;25.51;48.10;100965.59;4950568;29;1964;-69
2021/08/11 02:33:08;;;;;;;;;;;;;;;25.46;48.38;100989.13;4950286;29;1081;-68
2021/08/11 02:35:38;;;;;;;;;;;;;;;25.38;48.46;101001.38;4950559;29;1293;-68
2021/08/11 02:38:34;;;;;;;;;;;;;;;25.37;48.47;101000.53;4950436;29;1036;-68
2021/08/11 02:41:19;;;;;;;;;;;;;;;25.39;48.74;100987.91;4937899;29;1254;-68
2021/08/11 02:43:58;;;;;;;;;;;;;;;25.48;48.60;100971.19;4950164;29;1148;-68
2021/08/11 02:46:27;;;;;;;;;;;;;;;25.48;48.20;100980.97;4950034;29;1334;-68
2021/08/11 02:48:59;;;;;;;;;;;;;;;25.52;48.48;100971.78;4950142;29;1973;-67
2021/08/11 02:51:27;;;;;;;;;;;;;;;25.47;47.99;100969.44;4950360;29;1305;-68
2021/08/11 02:53:55;;;;;;;;;;;;;;;25.47;47.86;100969.44;4950198;28;1180;-68
2021/08/11 02:56:22;;;;;;;;;;;;;;;25.47;48.29;100950.78;4950213;28;1316;-69
2021/08/11 02:58:48;;;;;;;;;;;;;;;25.49;48.23;100932.88;4950772;28;1183;-68
2021/08/11 03:01:15;;;;;;;;;;;;;;;25.47;48.30;100920.63;4950364;29;1233;-68
2021/08/11 03:03:42;;;;;;;;;;;;;;;25.46;48.23;100913.59;4950205;28;942;-68
2021/08/11 03:06:10;;;;;;;;;;;;;;;25.47;47.96;100907.28;4950183;28;1229;-67
2021/08/11 03:08:38;;;;;;;;;;;;;;;25.47;47.61;100908.13;4935693;29;1545;-65
2021/08/11 03:11:08;;;;;;;;;;;;;;;25.38;47.69;100903.53;4919824;29;1981;-66
2021/08/11 03:13:35;;;;;;;;;;;;;;;25.41;47.82;100892.63;4949768;28;1093;-66
2021/08/11 03:16:02;;;;;;;;;;;;;;;25.45;47.28;100883.41;4949580;29;1309;-67
2021/08/11 03:18:32;;;;;;;;;;;;;;;25.44;47.16;100896.88;4949949;29;1140;-67
2021/08/11 03:20:59;;;;;;;;;;;;;;;25.39;46.66;100891.91;4932680;29;1304;-67
2021/08/11 03:23:25;;;;;;;;;;;;;;;25.37;46.97;100891.19;4949886;29;1056;-68
2021/08/11 03:25:52;;;;;;;;;;;;;;;25.35;47.17;100895.78;4949816;29;1234;-68
2021/08/11 03:28:18;;;;;;;;;;;;;;;25.36;46.85;100902.81;4950144;28;989;-68
2021/08/11 03:30:45;;;;;;;;;;;;;;;25.37;47.03;100898.34;4951265;28;2008;-69
2021/08/11 03:33:12;;;;;;;;;;;;;;;25.35;46.84;100910.97;4954087;29;1532;-68
2021/08/11 03:35:39;;;;;;;;;;;;;;;25.36;47.00;100923.31;4954034;29;1215;-68
2021/08/11 03:38:05;;;;;;;;;;;;;;;25.42;47.13;100912.13;4954208;29;1112;-69
2021/08/11 03:40:32;;;;;;;;;;;;;;;25.50;46.71;100907.88;4954032;28;1249;-67
2021/08/11 03:42:59;;;;;;;;;;;;;;;25.45;46.45;100902.06;4953749;29;838;-68
2021/08/11 03:45:25;;;;;;;;;;;;;;;25.45;46.22;100902.06;4936609;29;2448;-67
2021/08/11 03:47:52;;;;;;;;;;;;;;;25.39;46.60;100913.25;4953530;29;760;-68
2021/08/11 03:50:21;;;;;;;;;;;;;;;25.34;46.69;100910.13;4953847;29;1989;-67
2021/08/11 03:52:47;;;;;;;;;;;;;;;25.39;46.87;100901.72;4953506;29;989;-68
2021/08/11 03:55:15;;;;;;;;;;;;;;;25.36;46.82;100907.31;4953630;28;1438;-67
2021/08/11 03:57:42;;;;;;;;;;;;;;;25.40;46.53;100909.63;4953020;29;745;-68
2021/08/11 04:00:09;;;;;;;;;;;;;;;25.34;46.57;100910.13;4953954;28;1210;-66
2021/08/11 04:02:36;;;;;;;;;;;;;;;25.35;47.02;100911.78;4953135;28;1092;-67
2021/08/11 04:05:04;;;;;;;;;;;;;;;25.37;47.24;100928.53;4952322;29;1826;-68
2021/08/11 04:07:31;;;;;;;;;;;;;;;25.35;47.01;100937.63;4952807;29;791;-69
2021/08/11 04:09:58;;;;;;;;;;;;;;;25.33;47.09;100928.88;4953270;28;1918;-68
2021/08/11 04:12:24;;;;;;;;;;;;;;;25.30;47.62;100919.31;4952780;28;1077;-69
2021/08/11 04:14:51;;;;;;;;;;;;;;;25.32;47.85;100920.03;4952882;28;1249;-68
2021/08/11 04:17:18;;;;;;;;;;;;;;;25.28;47.80;100931.94;4952830;29;823;-69
2021/08/11 04:19:44;;;;;;;;;;;;;;;25.30;48.29;100926.47;4952580;28;1614;-68
2021/08/11 04:22:11;;;;;;;;;;;;;;;25.33;48.31;100923.56;4952441;28;863;-67
2021/08/11 04:24:38;;;;;;;;;;;;;;;25.33;48.34;100935.06;4953317;28;1052;-68
2021/08/11 04:27:04;;;;;;;;;;;;;;;25.26;48.16;100928.53;4935709;29;1408;-67
2021/08/11 04:29:31;;;;;;;;;;;;;;;25.33;48.32;100919.06;4952837;28;1914;-67
2021/08/11 04:31:58;;;;;;;;;;;;;;;25.31;48.63;100926.38;4934823;29;1695;-67
2021/08/11 04:34:24;;;;;;;;;;;;;;;25.27;48.70;100932.91;4952847;28;1141;-68
2021/08/11 04:36:51;;;;;;;;;;;;;;;25.25;48.50;100934.88;4952842;29;1214;-69
2021/08/11 04:39:18;;;;;;;;;;;;;;;25.28;48.51;100934.63;4952548;29;1343;-68
2021/08/11 04:41:45;;;;;;;;;;;;;;;25.25;49.02;100955.34;4918988;28;1474;-69
2021/08/11 04:44:11;;;;;;;;;;;;;;;25.25;49.18;100968.66;4952613;29;1063;-69
2021/08/11 04:46:38;;;;;;;;;;;;;;;25.25;49.04;100974.00;4952615;29;1226;-69
2021/08/11 04:49:05;;;;;;;;;;;;;;;25.26;48.98;100965.88;4952762;29;1173;-68
2021/08/11 04:51:32;;;;;;;;;;;;;;;25.30;48.79;100967.31;4952438;28;1961;-68
2021/08/11 04:54:00;;;;;;;;;;;;;;;25.31;48.82;100969.03;4952265;28;1145;-67
2021/08/11 04:56:26;;;;;;;;;;;;;;;25.31;48.55;100960.19;4952009;29;1187;-67
2021/08/11 04:58:53;;;;;;;;;;;;;;;25.25;48.74;100972.19;4952634;28;1039;-68
2021/08/11 05:01:20;;;;;;;;;;;;;;;25.26;48.40;100968.53;4952038;28;1222;-67
2021/08/11 05:03:47;;;;;;;;;;;;;;;25.28;48.56;100965.75;4952642;28;1118;-68
2021/08/11 05:06:14;;;;;;;;;;;;;;;25.29;48.28;100965.63;4952249;28;1213;-69
2021/08/11 05:08:40;;;;;;;;;;;;;;;25.24;47.79;100973.16;4952280;28;1050;-67
2021/08/11 05:11:07;;;;;;;;;;;;;;;25.33;47.84;100980.41;4951751;29;1988;-69
2021/08/11 05:13:34;;;;;;;;;;;;;;;25.28;47.43;100979.94;4951736;28;1198;-69
2021/08/11 05:16:00;;;;;;;;;;;;;;;25.27;47.05;100988.03;4951241;28;1229;-68
2021/08/11 05:18:27;;;;;;;;;;;;;;;25.13;47.15;100989.16;4951459;29;1098;-68
2021/08/11 05:20:54;;;;;;;;;;;;;;;25.19;46.74;101002.00;4951670;29;1320;-70
2021/08/11 05:23:21;;;;;;;;;;;;;;;25.24;47.05;101006.97;4934353;29;1032;-69
2021/08/11 05:25:48;;;;;;;;;;;;;;;25.21;46.96;101018.72;4953648;28;1445;-69
2021/08/11 05:28:15;;;;;;;;;;;;;;;25.27;46.69;101009.38;4961786;28;1108;-69
2021/08/11 05:30:42;;;;;;;;;;;;;;;25.26;46.24;101018.38;4971010;28;1918;-69
2021/08/11 05:33:09;;;;;;;;;;;;;;;25.26;46.24;101040.50;4970844;28;1591;-69
2021/08/11 05:35:35;;;;;;;;;;;;;;;25.21;46.79;101072.03;4970574;28;1332;-67
2021/08/11 05:38:04;;;;;;;;;;;;;;;25.22;46.62;101097.75;4958086;28;1597;-67
2021/08/11 05:40:31;;;;;;;;;;;;;;;25.26;46.77;101098.34;4950710;28;1371;-67
2021/08/11 05:42:58;;;;;;;;;;;;;;;25.29;46.97;101072.25;4950718;29;805;-67
2021/08/11 05:45:25;;;;;;;;;;;;;;;25.34;46.88;101063.91;4950846;28;1342;-68
2021/08/11 05:47:52;;;;;;;;;;;;;;;25.30;46.81;101063.31;4948611;28;812;-67
2021/08/11 05:50:18;;;;;;;;;;;;;;;25.28;46.80;101065.25;4969781;28;1910;-68
2021/08/11 05:52:46;;;;;;;;;;;;;;;25.35;46.59;101065.63;4952317;28;1065;-68
2021/08/11 05:55:14;;;;;;;;;;;;;;;25.33;46.61;101056.88;4970028;28;1316;-69
2021/08/11 05:57:41;;;;;;;;;;;;;;;25.34;46.47;101072.78;4954998;28;1069;-68
2021/08/11 06:00:09;;;;;;;;;;;;;;;25.31;46.29;101067.69;4950466;28;1351;-67
2021/08/11 06:02:37;;;;;;;;;;;;;;;25.33;46.94;101084.41;4956905;28;1562;-68
2021/08/11 06:05:05;;;;;;;;;;;;;;;25.32;46.83;101080.03;4953688;28;1221;-69
2021/08/11 06:07:31;;;;;;;;;;;;;;;25.39;46.72;101075.91;4958706;28;1575;-67
2021/08/11 06:09:58;;;;;;;;;;;;;;;25.34;46.92;101094.09;4959331;28;1911;-66
2021/08/11 06:12:25;;;;;;;;;;;;;;;25.33;46.68;101108.41;4941493;28;1573;-68
2021/08/11 06:14:51;;;;;;;;;;;;;;;25.35;46.82;101114.44;4954636;28;1602;-67
2021/08/11 06:17:18;;;;;;;;;;;;;;;25.32;46.83;101114.69;4949759;29;799;-69
2021/08/11 06:19:47;;;;;;;;;;;;;;;25.33;46.83;101121.72;4952221;28;2101;-68
2021/08/11 06:22:15;;;;;;;;;;;;;;;25.36;46.75;101115.28;4958488;28;846;-68
2021/08/11 06:24:42;;;;;;;;;;;;;;;25.34;46.69;101119.91;4949969;28;1220;-68
2021/08/11 06:27:09;;;;;;;;;;;;;;;25.35;46.74;101119.78;4932289;29;1198;-68
2021/08/11 06:29:36;;;;;;;;;;;;;;;25.34;46.23;101144.75;4952547;28;1468;-69
2021/08/11 06:32:03;;;;;;;;;;;;;;;25.33;46.60;101159.06;4958044;28;1963;-69
2021/08/11 06:34:30;;;;;;;;;;;;;;;25.35;46.54;101165.09;4932150;29;1338;-69
2021/08/11 06:36:56;;;;;;;;;;;;;;;25.38;46.82;101148.03;4952658;28;1622;-68
2021/08/11 06:39:26;;;;;;;;;;;;;;;25.39;46.57;101134.56;4957159;28;1028;-67
2021/08/11 06:41:53;;;;;;;;;;;;;;;25.39;46.26;101131.91;4961286;28;1348;-69
2021/08/11 06:44:20;;;;;;;;;;;;;;;25.38;46.51;101119.53;4951349;28;992;-69
2021/08/11 06:46:47;;;;;;;;;;;;;;;25.40;46.12;101117.63;4968668;28;1230;-67
2021/08/11 06:49:14;;;;;;;;;;;;;;;25.37;45.65;101120.53;4968864;28;1058;-67
2021/08/11 06:51:40;;;;;;;;;;;;;;;25.43;45.19;101116.53;4968272;28;1907;-67
2021/08/11 06:54:10;;;;;;;;;;;;;;;25.41;44.43;101119.28;4968468;28;1089;-67
2021/08/11 06:56:37;;;;;;;;;;;;;;;25.48;44.47;101117.88;4968301;28;1249;-69
2021/08/11 06:59:04;;;;;;;;;;;;;;;25.48;44.90;101117.00;4968123;28;1232;-69
2021/08/11 07:01:30;;;;;;;;;;;;;;;25.48;44.66;101107.22;4968322;28;1229;-69
2021/08/11 07:03:58;;;;;;;;;;;;;;;25.48;44.04;101101.88;4968439;28;925;-70
2021/08/11 07:06:24;;;;;;;;;;;;;;;25.51;43.59;101082.97;4972830;28;1329;-67
2021/08/11 07:08:51;;;;;;;;;;;;;;;25.51;42.86;101082.97;4973992;28;1590;-69
2021/08/11 07:11:18;;;;;;;;;;;;;;;25.57;41.87;101091.44;4975848;28;1989;-70
2021/08/11 07:13:45;;;;;;;;;;;;;;;25.59;41.79;101086.84;4958277;28;1524;-68
2021/08/11 07:16:12;;;;;;;;;;;;;;;25.62;41.85;101074.09;4975385;28;1273;-69
2021/08/11 07:18:39;;;;;;;;;;;;;;;25.65;42.71;101078.34;4974869;28;1131;-67
2021/08/11 07:21:05;;;;;;;;;;;;;;;25.63;42.45;101080.25;4975702;28;1198;-69
2021/08/11 07:23:32;;;;;;;;;;;;;;;25.59;42.25;101070.84;4942173;28;1329;-69
2021/08/11 07:25:59;;;;;;;;;;;;;;;25.57;42.49;101064.75;4975185;28;1641;-68
2021/08/11 07:28:25;;;;;;;;;;;;;;;25.58;41.91;101063.78;4949406;28;1516;-68
2021/08/11 07:30:52;;;;;;;;;;;;;;;25.61;41.51;101056.41;4969406;28;1974;-68
2021/08/11 07:33:21;;;;;;;;;;;;;;;25.60;42.60;101049.34;4938863;28;1380;-70
2021/08/11 07:35:48;;;;;;;;;;;;;;;25.60;41.77;101048.50;4970259;28;1285;-69
2021/08/11 07:38:15;;;;;;;;;;;;;;;25.57;41.43;101033.59;4972738;28;1628;-69
2021/08/11 07:40:42;;;;;;;;;;;;;;;25.58;41.13;101026.44;4973424;28;1190;-68
2021/08/11 07:43:09;;;;;;;;;;;;;;;25.59;41.52;101025.50;4942879;28;1567;-71
2021/08/11 07:45:36;;;;;;;;;;;;;;;25.56;41.71;101033.75;4954937;28;1271;-69
2021/08/11 07:48:03;;;;;;;;;;;;;;;25.61;41.56;101052.88;4953019;28;1523;-69
2021/08/11 07:50:30;;;;;;;;;;;;;;;25.60;41.73;101070.69;4945407;28;1974;-70
2021/08/11 07:52:57;;;;;;;;;;;;;;;25.60;41.82;101069.84;4954778;28;1277;-69
2021/08/11 07:55:24;;;;;;;;;;;;;;;25.58;42.47;101067.31;4965520;28;1344;-69
2021/08/11 07:57:51;;;;;;;;;;;;;;;25.62;42.77;101047.44;4966082;28;1555;-68
2021/08/11 08:00:20;;;;;;;;;;;;;;;25.61;42.79;101047.53;4954543;28;1186;-67
2021/08/11 08:02:47;;;;;;;;;;;;;;;25.62;43.83;101046.59;4937453;29;819;-68
2021/08/11 08:05:15;;;;;;;;;;;;;;;25.62;43.94;101046.59;4954681;28;1342;-68
2021/08/11 08:07:41;;;;;;;;;;;;;;;25.57;45.03;101032.75;4954454;28;808;-67
2021/08/11 08:10:09;;;;;;;;;;;;;;;25.54;45.35;101042.69;4958974;28;1976;-72
2021/08/11 08:12:39;;;;;;;;;;;;;;;25.57;45.62;101046.94;4954464;28;1279;-69
2021/08/11 08:15:06;;;;;;;;;;;;;;;25.56;45.85;101044.41;4951610;28;1564;-71
2021/08/11 08:17:33;;;;;;;;;;;;;;;25.59;46.28;101049.50;4947832;28;1306;-70
2021/08/11 08:20:13;;;;;;;;;;;;;;;25.57;46.37;101059.41;4949082;29;1340;-70
2021/08/11 08:22:40;;;;;;;;;;;;;;;25.62;46.13;101067.91;4948749;29;1223;-71
2021/08/11 08:25:07;;;;;;;;;;;;;;;25.62;45.95;101054.59;4951688;28;1375;-70
2021/08/11 08:27:33;;;;;;;;;;;;;;;25.61;45.67;101052.88;4951516;28;1230;-67
2021/08/11 08:30:00;;;;;;;;;;;;;;;25.65;46.03;101054.34;4949278;29;1364;-67
2021/08/11 08:32:29;;;;;;;;;;;;;;;25.66;46.16;101048.84;4951592;28;1967;-67
2021/08/11 08:34:56;;;;;;;;;;;;;;;25.74;45.70;101051.78;4951732;28;1269;-67
2021/08/11 08:37:27;;;;;;;;;;;;;;;25.76;45.92;101059.63;4951565;28;1231;-68
2021/08/11 08:39:53;;;;;;;;;;;;;;;25.78;45.86;101049.66;4949940;28;1343;-69
2021/08/11 08:42:20;;;;;;;;;;;;;;;25.75;45.95;101041.91;4951285;29;1212;-67
2021/08/11 08:44:47;;;;;;;;;;;;;;;25.76;46.73;101044.47;4950845;28;1369;-67
2021/08/11 08:47:15;;;;;;;;;;;;;;;25.78;47.44;101052.34;4949822;28;1300;-66
2021/08/11 08:49:43;;;;;;;;;;;;;;;25.77;48.09;101051.53;4944108;29;1755;-68
2021/08/11 08:52:10;;;;;;;;;;;;;;;25.77;47.61;101038.19;4949154;28;1989;-66
2021/08/11 08:54:37;;;;;;;;;;;;;;;25.92;47.39;101038.72;4951419;28;1281;-69
2021/08/11 08:57:04;;;;;;;;;;;;;;;25.93;47.76;101051.94;4949235;28;1301;-67
2021/08/11 08:59:31;;;;;;;;;;;;;;;25.95;48.09;101059.84;4951775;28;1271;-68
2021/08/11 09:01:57;;;;;;;;;;;;;;;25.97;47.93;101053.38;4950503;28;1217;-73
2021/08/11 09:04:24;;;;;;;;;;;;;;;25.96;48.45;101050.84;4952109;28;1239;-69
2021/08/11 09:06:55;;;;;;;;;;;;;;;25.97;47.93;101040.03;4951475;28;1333;-69
2021/08/11 09:09:32;;;;;;;;;;;;;;;26.02;47.43;101039.69;4950153;28;1322;-70
2021/08/11 09:12:11;;;;;;;;;;;;;;;26.04;46.70;101043.06;4949621;29;1906;-67
2021/08/11 09:14:45;;;;;;;;;;;;;;;26.06;46.93;101047.28;4948587;28;1572;-68
2021/08/11 09:17:30;;;;;;;;;;;;;;;26.06;47.19;101038.44;4951130;28;1269;-69
2021/08/11 09:19:57;;;;;;;;;;;;;;;26.05;47.23;101023.41;4952474;28;1242;-70
2021/08/11 09:22:43;;;;;;;;;;;;;;;26.08;47.24;101021.31;4951358;28;1203;-67
2021/08/11 09:25:10;;;;;;;;;;;;;;;26.04;47.80;101019.88;4949354;28;1289;-70
2021/08/11 09:27:45;;;;;;;;;;;;;;;26.11;47.23;101024.72;4949503;29;1216;-65
2021/08/11 09:30:17;;;;;;;;;;;;;;;26.14;47.24;101025.31;4950190;28;1379;-66
2021/08/11 09:32:51;;;;;;;;;;;;;;;26.12;47.07;101013.03;4946348;29;1906;-65
2021/08/11 09:35:26;;;;;;;;;;;;;;;26.17;47.29;101027.75;4950143;28;1375;-70
2021/08/11 09:37:53;;;;;;;;;;;;;;;26.13;46.89;101031.59;4932968;29;1296;-67
2021/08/11 09:40:24;;;;;;;;;;;;;;;26.16;46.72;101038.53;4949184;28;1652;-68
2021/08/11 09:42:57;;;;;;;;;;;;;;;26.17;47.51;101038.44;4948674;28;1290;-69
2021/08/11 09:45:25;;;;;;;;;;;;;;;26.14;46.85;101033.31;4947875;28;1285;-68
2021/08/11 09:47:53;;;;;;;;;;;;;;;26.15;46.90;101040.38;4948175;28;1267;-69
2021/08/11 09:50:31;;;;;;;;;;;;;;;26.20;46.57;101050.66;4948531;28;1293;-68
2021/08/11 09:52:58;;;;;;;;;;;;;;;26.19;47.25;101047.16;4948231;29;1227;-68
2021/08/11 09:55:25;;;;;;;;;;;;;;;26.19;46.86;101046.28;4950806;28;1288;-69
2021/08/11 09:57:52;;;;;;;;;;;;;;;26.20;47.16;101050.66;4948236;28;1172;-69
2021/08/11 10:00:19;;;;;;;;;;;;;;;26.20;47.18;101059.53;4950103;28;1368;-67
2021/08/11 10:03:00;;;;;;;;;;;;;;;26.18;47.46;101068.63;4948359;28;1219;-69
2021/08/11 10:05:32;;;;;;;;;;;;;;;26.23;47.17;101071.78;4950587;28;1411;-70
2021/08/11 10:07:59;;;;;;;;;;;;;;;26.25;48.08;101065.31;4948183;28;1207;-68
2021/08/11 10:10:26;;;;;;;;;;;;;;;26.26;47.99;101048.34;4931443;28;1580;-66
2021/08/11 10:12:53;;;;;;;;;;;;;;;26.29;47.90;101048.09;4947364;29;1966;-64
2021/08/11 10:15:20;;;;;;;;;;;;;;;26.26;47.68;101059.03;4966513;28;1538;-65
2021/08/11 10:17:49;;;;;;;;;;;;;;;26.26;48.07;101055.50;4967573;28;1204;-68
2021/08/11 10:20:19;;;;;;;;;;;;;;;26.22;47.43;101054.91;4967936;28;1344;-69
2021/08/11 10:22:46;;;;;;;;;;;;;;;26.21;47.02;101049.69;4967634;28;1132;-73
2021/08/11 10:25:14;;;;;;;;;;;;;;;26.22;47.14;101046.91;4967741;28;1356;-71
2021/08/11 10:27:44;;;;;;;;;;;;;;;26.19;47.24;101059.66;4967645;28;1203;-72
2021/08/11 10:30:13;;;;;;;;;;;;;;;26.18;46.82;101063.28;4950370;28;1227;-72
2021/08/11 10:32:40;;;;;;;;;;;;;;;26.15;47.29;101069.72;4967095;28;1987;-72
2021/08/11 10:35:06;;;;;;;;;;;;;;;26.16;47.10;101083.94;4967596;28;1358;-72
2021/08/11 10:37:35;;;;;;;;;;;;;;;26.16;46.57;101073.25;4966181;28;1203;-72
2021/08/11 10:40:02;;;;;;;;;;;;;;;26.15;46.44;101068.84;4967651;28;1344;-72
2021/08/11 10:42:29;;;;;;;;;;;;;;;26.15;46.30;101064.38;4967720;28;1164;-70
2021/08/11 10:44:58;;;;;;;;;;;;;;;26.16;46.15;101057.22;4967846;28;1366;-71
2021/08/11 10:47:30;;;;;;;;;;;;;;;26.17;46.64;101065.13;4964055;28;1192;-68
2021/08/11 10:49:58;;;;;;;;;;;;;;;26.22;45.35;101078.94;4965051;28;1313;-68
2021/08/11 10:52:25;;;;;;;;;;;;;;;26.22;46.15;101067.41;4967978;28;1910;-71
2021/08/11 10:54:56;;;;;;;;;;;;;;;26.23;45.93;101056.59;4950227;28;1302;-69
2021/08/11 10:57:34;;;;;;;;;;;;;;;26.26;44.70;101037.66;4967646;28;1174;-70
2021/08/11 11:00:01;;;;;;;;;;;;;;;26.20;46.12;101005.28;4964017;28;1357;-73
2021/08/11 11:02:40;;;;;;;;;;;;;;;26.21;44.06;101092.41;4948189;28;1294;-69
2021/08/11 11:05:27;;;;;;;;;;;;;;;26.24;44.25;101071.63;4929876;28;1290;-69
2021/08/11 11:08:10;;;;;;;;;;;;;;;26.19;44.83;101015.09;4947185;28;1310;-68
2021/08/11 11:10:37;;;;;;;;;;;;;;;26.16;44.56;101015.38;4946781;28;1468;-68
2021/08/11 11:13:22;;;;;;;;;;;;;;;26.21;45.80;101010.47;4933353;28;1902;-70
2021/08/11 11:15:53;;;;;;;;;;;;;;;26.24;45.86;101006.69;4950333;28;1305;-64
2021/08/11 11:18:21;;;;;;;;;;;;;;;26.24;45.85;101007.56;4954814;28;1578;-69
2021/08/11 11:20:48;;;;;;;;;;;;;;;26.22;46.24;101022.84;4948013;28;1248;-67
2021/08/11 11:23:35;;;;;;;;;;;;;;;26.26;45.67;101035.00;4948175;29;898;-66
2021/08/11 11:26:05;;;;;;;;;;;;;;;26.29;46.60;101013.38;4947976;28;1882;-65
2021/08/11 11:28:53;;;;;;;;;;;;;;;26.28;46.51;101006.31;4948274;29;878;-66
2021/08/11 11:31:30;;;;;;;;;;;;;;;26.26;46.25;101005.63;4948362;29;1985;-63
2021/08/11 11:34:16;;;;;;;;;;;;;;;26.30;46.81;101000.84;4949183;28;1532;-64
2021/08/11 11:36:42;;;;;;;;;;;;;;;26.30;46.49;101000.84;4967673;28;1183;-66
2021/08/11 11:39:12;;;;;;;;;;;;;;;26.30;46.74;100995.50;4967777;28;1128;-65
2021/08/11 11:41:59;;;;;;;;;;;;;;;26.30;46.82;101001.69;4967817;28;1224;-68
2021/08/11 11:44:45;;;;;;;;;;;;;;;26.30;46.34;101023.06;4967901;28;1037;-65
2021/08/11 11:47:16;;;;;;;;;;;;;;;26.35;46.78;101022.69;4965824;28;1479;-64
2021/08/11 11:49:43;;;;;;;;;;;;;;;26.29;46.43;101015.19;4949639;28;1257;-65
2021/08/11 11:52:18;;;;;;;;;;;;;;;26.28;46.27;101016.16;4969592;28;1907;-65
2021/08/11 11:54:48;;;;;;;;;;;;;;;26.25;46.48;101009.25;4971293;28;1321;-66
2021/08/11 11:57:16;;;;;;;;;;;;;;;26.24;47.15;101036.06;4971296;28;1238;-65
2021/08/11 11:59:47;;;;;;;;;;;;;;;26.26;46.82;101015.44;4970731;28;1311;-66
2021/08/11 12:02:18;;;;;;;;;;;;;;;26.25;46.69;101011.91;4971799;28;1257;-64
2021/08/11 12:05:06;;;;;;;;;;;;;;;26.26;46.81;101013.63;4971179;28;1290;-66
2021/08/11 12:07:33;;;;;;;;;;;;;;;26.26;46.55;100992.25;4954224;28;693;-68
2021/08/11 12:10:00;;;;;;;;;;;;;;;26.23;47.62;100995.19;4952770;28;1555;-65
2021/08/11 12:12:27;;;;;;;;;;;;;;;26.32;47.64;100993.56;4958485;28;1911;-65
2021/08/11 12:15:13;;;;;;;;;;;;;;;26.27;48.10;100980.59;4955613;28;1315;-65
2021/08/11 12:17:40;;;;;;;;;;;;;;;26.28;47.71;100984.97;4952209;28;1081;-65
2021/08/11 12:20:23;;;;;;;;;;;;;;;26.26;47.92;100981.59;4971035;28;1257;-65
